createdAt,value
2019-01-29T00:00:44.078Z,99258.48
2019-01-29T00:03:13.309Z,99257.19
2019-01-29T00:05:42.515Z,99264.41
2019-01-29T00:08:11.714Z,99266.42
2019-01-29T00:10:40.956Z,99265.34
2019-01-29T00:13:10.182Z,99270.11
2019-01-29T00:15:39.378Z,99273.27
2019-01-29T00:18:08.580Z,99267.91
2019-01-29T00:20:37.820Z,99271.34
2019-01-29T00:23:07.007Z,99280.19
2019-01-29T00:25:36.238Z,99280.41
2019-01-29T00:28:05.484Z,99283.19
2019-01-29T00:30:34.706Z,99284.25
2019-01-29T00:33:04.238Z,99290.94
2019-01-29T00:35:33.475Z,99288.58
2019-01-29T00:38:02.676Z,99292.69
2019-01-29T00:40:31.920Z,99302.77
2019-01-29T00:43:01.101Z,99297.85
2019-01-29T00:45:30.335Z,99301.05
2019-01-29T00:47:59.532Z,99298.61
2019-01-29T00:50:28.763Z,99303.20
2019-01-29T00:52:57.995Z,99311.53
2019-01-29T00:55:27.238Z,99310.87
2019-01-29T00:57:56.461Z,99313.27
2019-01-29T01:00:25.653Z,99313.27
2019-01-29T01:02:54.889Z,99305.38
2019-01-29T01:05:24.136Z,99317.22
2019-01-29T01:07:53.370Z,99321.73
2019-01-29T01:10:22.545Z,99324.16
2019-01-29T01:12:51.741Z,99336.03
2019-01-29T01:15:20.978Z,99336.56
2019-01-29T01:17:50.218Z,99335.14
2019-01-29T01:20:19.407Z,99341.49
2019-01-29T01:22:51.011Z,99349.29
2019-01-29T01:25:19.584Z,99351.63
2019-01-29T01:27:48.810Z,99351.53
2019-01-29T01:30:19.043Z,99346.43
2019-01-29T01:32:48.267Z,99348.36
2019-01-29T01:35:17.575Z,99347.33
2019-01-29T01:37:46.770Z,99355.97
2019-01-29T01:40:21.151Z,99358.80
2019-01-29T01:42:50.378Z,99352.50
2019-01-29T01:45:19.574Z,99363.57
2019-01-29T01:47:48.808Z,99360.08
2019-01-29T01:50:18.003Z,99369.63
2019-01-29T01:52:47.237Z,99371.47
2019-01-29T01:55:17.674Z,99372.41
2019-01-29T01:57:46.906Z,99382.45
2019-01-29T02:00:17.972Z,99380.28
2019-01-29T02:02:47.216Z,99379.71
2019-01-29T02:05:16.434Z,99384.95
2019-01-29T02:07:45.667Z,99380.53
2019-01-29T02:10:18.159Z,99386.26
2019-01-29T02:12:47.355Z,99391.19
2019-01-29T02:15:16.574Z,99388.94
2019-01-29T02:17:45.788Z,99392.64
2019-01-29T02:20:16.265Z,99393.34
2019-01-29T02:22:45.459Z,99397.65
2019-01-29T02:25:14.711Z,99396.64
2019-01-29T02:27:43.940Z,99396.80
2019-01-29T02:30:15.773Z,99407.38
2019-01-29T02:32:45.000Z,99410.35
2019-01-29T02:35:14.232Z,99408.65
2019-01-29T02:37:43.428Z,99404.33
2019-01-29T02:40:26.485Z,99412.91
2019-01-29T02:42:55.678Z,99418.20
2019-01-29T02:45:24.903Z,99427.97
2019-01-29T02:47:54.103Z,99433.46
2019-01-29T02:50:23.346Z,99433.70
2019-01-29T02:52:52.548Z,99430.95
2019-01-29T02:55:21.769Z,99436.44
2019-01-29T02:57:50.958Z,99439.30
2019-01-29T03:00:22.543Z,99438.64
2019-01-29T03:02:51.882Z,99438.34
2019-01-29T03:05:21.089Z,99433.69
2019-01-29T03:07:50.442Z,99448.14
2019-01-29T03:10:22.494Z,99440.36
2019-01-29T03:12:51.683Z,99446.50
2019-01-29T03:15:26.501Z,99454.28
2019-01-29T03:17:55.700Z,99443.34
2019-01-29T03:20:24.941Z,99448.22
2019-01-29T03:22:54.155Z,99449.77
2019-01-29T03:25:23.393Z,99454.80
2019-01-29T03:27:52.623Z,99453.91
2019-01-29T03:30:22.959Z,99458.30
2019-01-29T03:32:52.184Z,99462.28
2019-01-29T03:35:21.523Z,99469.73
2019-01-29T03:37:50.713Z,99465.49
2019-01-29T03:40:24.806Z,99471.68
2019-01-29T03:42:54.469Z,99474.28
2019-01-29T03:45:23.697Z,99477.38
2019-01-29T03:47:52.896Z,99480.44
2019-01-29T03:50:22.779Z,99494.11
2019-01-29T03:52:51.971Z,99492.06
2019-01-29T03:55:21.206Z,99486.52
2019-01-29T03:57:50.417Z,99498.84
2019-01-29T04:00:25.352Z,99497.17
2019-01-29T04:02:54.671Z,99500.16
2019-01-29T04:05:23.911Z,99503.69
2019-01-29T04:07:53.104Z,99505.93
2019-01-29T04:10:22.333Z,99512.89
2019-01-29T04:12:51.527Z,99514.72
2019-01-29T04:15:22.810Z,99521.69
2019-01-29T04:17:56.786Z,99519.42
2019-01-29T04:20:26.205Z,99523.41
2019-01-29T04:22:55.390Z,99530.41
2019-01-29T04:25:24.579Z,99527.80
2019-01-29T04:27:54.879Z,99536.08
2019-01-29T04:30:24.200Z,99540.48
2019-01-29T04:32:53.444Z,99543.45
2019-01-29T04:35:22.674Z,99547.82
2019-01-29T04:37:51.900Z,99542.60
2019-01-29T04:40:21.140Z,99546.06
2019-01-29T04:42:50.437Z,99549.09
2019-01-29T04:45:19.635Z,99553.89
2019-01-29T04:47:48.865Z,99546.77
2019-01-29T04:50:20.025Z,99541.41
2019-01-29T04:52:50.127Z,99551.23
2019-01-29T04:55:20.621Z,99549.40
2019-01-29T04:57:49.826Z,99550.25
2019-01-29T05:00:21.587Z,99551.19
2019-01-29T05:02:50.790Z,99550.00
2019-01-29T05:05:20.555Z,99560.14
2019-01-29T05:07:49.967Z,99560.44
2019-01-29T05:10:21.195Z,99556.89
2019-01-29T05:12:50.399Z,99557.22
2019-01-29T05:15:20.384Z,99559.72
2019-01-29T05:17:49.579Z,99560.61
2019-01-29T05:20:20.553Z,99560.16
2019-01-29T05:22:49.753Z,99567.50
2019-01-29T05:25:18.960Z,99567.45
2019-01-29T05:27:48.281Z,99565.26
2019-01-29T05:30:23.094Z,99575.28
2019-01-29T05:32:52.277Z,99574.87
2019-01-29T05:35:21.507Z,99571.20
2019-01-29T05:37:50.708Z,99573.23
2019-01-29T05:40:23.490Z,99574.91
2019-01-29T05:42:52.722Z,99575.56
2019-01-29T05:45:22.787Z,99580.13
2019-01-29T05:47:51.978Z,99577.07
2019-01-29T05:50:21.342Z,99577.02
2019-01-29T05:52:51.607Z,99575.69
2019-01-29T05:55:20.834Z,99577.50
2019-01-29T05:57:50.034Z,99580.02
2019-01-29T06:00:27.000Z,99590.08
2019-01-29T06:02:56.261Z,99583.38
2019-01-29T06:05:25.535Z,99586.25
2019-01-29T06:07:54.793Z,99588.58
2019-01-29T06:10:24.144Z,99586.91
2019-01-29T06:12:53.381Z,99587.64
2019-01-29T06:15:24.782Z,99596.00
2019-01-29T06:17:54.008Z,99593.50
2019-01-29T06:20:26.007Z,99603.78
2019-01-29T06:22:55.243Z,99603.10
2019-01-29T06:25:24.508Z,99599.33
2019-01-29T06:27:53.808Z,99603.60
2019-01-29T06:30:24.739Z,99600.91
2019-01-29T06:32:53.983Z,99599.03
2019-01-29T06:35:23.172Z,99608.14
2019-01-29T06:37:52.675Z,99615.98
2019-01-29T06:40:24.023Z,99611.66
2019-01-29T06:42:53.382Z,99615.81
2019-01-29T06:45:24.021Z,99624.39
2019-01-29T06:47:53.531Z,99620.08
2019-01-29T06:50:26.825Z,99630.59
2019-01-29T06:52:56.256Z,99629.42
2019-01-29T06:55:25.969Z,99634.56
2019-01-29T06:57:56.128Z,99643.92
2019-01-29T07:00:31.014Z,99647.12
2019-01-29T07:03:00.888Z,99640.29
2019-01-29T07:05:30.098Z,99648.55
2019-01-29T07:08:00.328Z,99651.91
2019-01-29T07:10:29.522Z,99657.42
2019-01-29T07:12:58.716Z,99654.17
2019-01-29T07:15:47.281Z,99651.20
2019-01-29T07:18:34.382Z,99656.09
2019-01-29T07:21:05.851Z,99656.67
2019-01-29T07:23:35.073Z,99654.39
2019-01-29T07:26:04.443Z,99648.96
2019-01-29T07:28:35.273Z,99654.50
2019-01-29T07:31:04.485Z,99658.69
2019-01-29T07:33:33.708Z,99661.48
2019-01-29T07:36:02.903Z,99661.44
2019-01-29T07:38:32.131Z,99664.66
2019-01-29T07:41:01.348Z,99663.66
2019-01-29T07:43:31.627Z,99663.02
2019-01-29T07:46:00.900Z,99660.67
2019-01-29T07:48:30.101Z,99666.83
2019-01-29T07:50:59.432Z,99662.75
2019-01-29T07:53:28.642Z,99664.33
2019-01-29T07:55:57.882Z,99663.21
2019-01-29T07:58:27.071Z,99667.00
2019-01-29T08:00:56.561Z,99667.94
2019-01-29T08:03:25.791Z,99672.87
2019-01-29T08:05:54.979Z,99680.29
2019-01-29T08:08:24.209Z,99682.13
2019-01-29T08:10:53.768Z,99685.03
2019-01-29T08:13:22.990Z,99682.28
2019-01-29T08:15:52.183Z,99682.38
2019-01-29T08:18:21.445Z,99680.25
2019-01-29T08:20:50.763Z,99688.42
2019-01-29T08:23:20.057Z,99686.53
2019-01-29T08:25:49.389Z,99687.56
2019-01-29T08:28:18.516Z,99690.16
2019-01-29T08:30:47.893Z,99686.02
2019-01-29T08:33:17.395Z,99686.59
2019-01-29T08:35:46.609Z,99689.42
2019-01-29T08:38:15.789Z,99690.01
2019-01-29T08:40:45.025Z,99690.11
2019-01-29T08:43:14.214Z,99699.74
2019-01-29T08:45:43.448Z,99698.91
2019-01-29T08:48:12.668Z,99700.88
2019-01-29T08:50:42.929Z,99697.59
2019-01-29T08:53:12.194Z,99701.69
2019-01-29T08:55:41.388Z,99702.36
2019-01-29T08:58:11.551Z,99701.66
2019-01-29T09:00:40.859Z,99700.55
2019-01-29T09:03:10.038Z,99713.77
2019-01-29T09:05:39.285Z,99706.52
2019-01-29T09:08:08.471Z,99706.17
2019-01-29T09:10:37.670Z,99711.33
2019-01-29T09:13:06.930Z,99710.59
2019-01-29T09:15:36.113Z,99708.81
2019-01-29T09:18:06.177Z,99703.61
2019-01-29T09:20:35.369Z,99711.73
2019-01-29T09:23:04.561Z,99714.26
2019-01-29T09:25:33.821Z,99718.75
2019-01-29T09:28:04.066Z,99715.80
2019-01-29T09:30:34.358Z,99718.48
2019-01-29T09:33:04.120Z,99719.14
2019-01-29T09:35:33.309Z,99713.70
2019-01-29T09:38:02.577Z,99718.61
2019-01-29T09:40:31.786Z,99713.64
2019-01-29T09:43:01.058Z,99709.31
2019-01-29T09:45:30.259Z,99715.59
2019-01-29T09:47:59.493Z,99712.55
2019-01-29T09:50:28.690Z,99713.91
2019-01-29T09:52:57.887Z,99716.44
2019-01-29T09:55:29.553Z,99708.57
2019-01-29T09:57:58.004Z,99715.73
2019-01-29T10:00:38.440Z,99712.53
2019-01-29T10:03:07.729Z,99714.66
2019-01-29T10:05:36.927Z,99716.79
2019-01-29T10:08:06.148Z,99722.42
2019-01-29T10:10:35.340Z,99717.61
2019-01-29T10:13:04.641Z,99715.34
2019-01-29T10:15:35.680Z,99716.66
2019-01-29T10:18:05.369Z,99719.67
2019-01-29T10:20:34.605Z,99720.73
2019-01-29T10:23:04.175Z,99715.27
2019-01-29T10:25:37.786Z,99717.97
2019-01-29T10:28:04.298Z,99709.81
2019-01-29T10:30:33.538Z,99710.93
2019-01-29T10:33:02.735Z,99717.16
2019-01-29T10:35:31.953Z,99715.56
2019-01-29T10:38:01.137Z,99716.45
2019-01-29T10:40:30.361Z,99711.02
2019-01-29T10:42:59.561Z,99708.81
2019-01-29T10:45:30.048Z,99715.66
2019-01-29T10:47:59.281Z,99708.70
2019-01-29T10:50:30.311Z,99708.31
2019-01-29T10:52:59.806Z,99706.39
2019-01-29T10:55:29.028Z,99707.42
2019-01-29T10:57:58.293Z,99703.48
2019-01-29T11:00:30.539Z,99700.36
2019-01-29T11:02:59.718Z,99701.58
2019-01-29T11:05:28.907Z,99697.38
2019-01-29T11:07:58.321Z,99699.53
2019-01-29T11:10:27.859Z,99695.31
2019-01-29T11:12:57.058Z,99698.05
2019-01-29T11:15:32.272Z,99697.81
2019-01-29T11:18:01.474Z,99693.59
2019-01-29T11:20:30.689Z,99690.53
2019-01-29T11:23:00.956Z,99687.73
2019-01-29T11:25:30.758Z,99686.56
2019-01-29T11:27:59.957Z,99684.16
2019-01-29T11:30:31.720Z,99684.65
2019-01-29T11:33:00.912Z,99675.48
2019-01-29T11:35:30.148Z,99685.48
2019-01-29T11:37:59.384Z,99678.47
2019-01-29T11:40:30.317Z,99677.45
2019-01-29T11:42:59.550Z,99677.45
2019-01-29T11:45:40.933Z,99673.25
2019-01-29T11:48:10.119Z,99676.92
2019-01-29T11:50:39.358Z,99675.76
2019-01-29T11:53:08.560Z,99674.28
2019-01-29T11:55:37.789Z,99668.47
2019-01-29T11:58:07.336Z,99674.55
2019-01-29T12:00:38.956Z,99666.40
2019-01-29T12:03:08.127Z,99665.70
2019-01-29T12:05:37.366Z,99663.27
2019-01-29T12:08:06.838Z,99656.98
2019-01-29T12:10:36.165Z,99658.03
2019-01-29T12:13:05.515Z,99655.95
2019-01-29T12:15:34.750Z,99649.86
2019-01-29T12:18:04.646Z,99654.17
2019-01-29T12:20:33.873Z,99651.59
2019-01-29T12:23:04.097Z,99652.11
2019-01-29T12:25:33.321Z,99648.45
2019-01-29T12:28:02.561Z,99654.05
2019-01-29T12:30:31.752Z,99649.70
2019-01-29T12:33:02.506Z,99649.00
2019-01-29T12:35:31.739Z,99649.14
2019-01-29T12:38:00.978Z,99645.64
2019-01-29T12:40:30.209Z,99656.11
2019-01-29T12:42:59.452Z,99648.64
2019-01-29T12:45:28.641Z,99647.33
2019-01-29T12:47:57.872Z,99645.17
2019-01-29T12:50:28.647Z,99649.98
2019-01-29T12:53:03.790Z,99649.98
2019-01-29T12:55:33.191Z,99646.06
2019-01-29T12:58:02.390Z,99645.79
2019-01-29T13:00:33.310Z,99645.03
2019-01-29T13:03:02.516Z,99651.67
2019-01-29T13:05:32.809Z,99652.17
2019-01-29T13:08:02.141Z,99648.23
2019-01-29T13:10:31.455Z,99647.26
2019-01-29T13:13:00.684Z,99649.09
2019-01-29T13:15:31.743Z,99648.25
2019-01-29T13:18:01.571Z,99647.12
2019-01-29T13:20:31.041Z,99644.25
2019-01-29T13:23:00.220Z,99643.28
2019-01-29T13:25:29.455Z,99641.53
2019-01-29T13:27:58.654Z,99638.28
2019-01-29T13:30:33.056Z,99639.23
2019-01-29T13:33:02.332Z,99631.19
2019-01-29T13:35:33.404Z,99629.39
2019-01-29T13:38:02.609Z,99639.50
2019-01-29T13:40:31.848Z,99631.19
2019-01-29T13:43:01.038Z,99638.84
2019-01-29T13:45:30.268Z,99630.61
2019-01-29T13:47:59.507Z,99631.75
2019-01-29T13:50:31.842Z,99627.14
2019-01-29T13:53:01.036Z,99632.11
2019-01-29T13:55:30.236Z,99635.31
2019-01-29T13:57:59.852Z,99625.78
2019-01-29T14:00:33.703Z,99631.28
2019-01-29T14:03:03.225Z,99627.16
2019-01-29T14:05:32.462Z,99630.40
2019-01-29T14:08:01.735Z,99623.65
2019-01-29T14:10:30.898Z,99623.74
2019-01-29T14:13:00.099Z,99626.41
2019-01-29T14:15:33.908Z,99627.98
2019-01-29T14:18:04.173Z,99626.06
2019-01-29T14:20:33.531Z,99628.95
2019-01-29T14:23:02.776Z,99620.59
2019-01-29T14:25:31.969Z,99626.80
2019-01-29T14:28:01.311Z,99619.17
2019-01-29T14:30:31.401Z,99618.98
2019-01-29T14:33:00.630Z,99618.65
2019-01-29T14:35:29.866Z,99605.52
2019-01-29T14:38:02.337Z,99602.46
2019-01-29T14:40:33.719Z,99599.16
2019-01-29T14:43:02.918Z,99602.30
2019-01-29T14:45:33.205Z,99602.31
2019-01-29T14:48:02.403Z,99601.94
2019-01-29T14:50:31.683Z,99601.60
2019-01-29T14:53:01.008Z,99603.35
2019-01-29T14:55:30.324Z,99603.41
2019-01-29T14:57:59.558Z,99597.77
2019-01-29T15:00:37.526Z,99592.88
2019-01-29T15:03:06.998Z,99590.84
2019-01-29T15:05:36.176Z,99593.30
2019-01-29T15:08:05.507Z,99599.30
2019-01-29T15:10:34.890Z,99588.59
2019-01-29T15:13:04.232Z,99591.87
2019-01-29T15:15:51.330Z,99589.59
2019-01-29T15:18:25.317Z,99589.09
2019-01-29T15:20:54.510Z,99583.73
2019-01-29T15:23:23.866Z,99585.33
2019-01-29T15:25:53.036Z,99581.58
2019-01-29T15:28:22.274Z,99584.58
2019-01-29T15:30:51.487Z,99591.03
2019-01-29T15:33:20.729Z,99579.94
2019-01-29T15:35:49.926Z,99572.81
2019-01-29T15:38:19.164Z,99579.72
2019-01-29T15:40:48.627Z,99577.84
2019-01-29T15:43:17.871Z,99572.14
2019-01-29T15:45:47.058Z,99571.19
2019-01-29T15:48:16.410Z,99572.86
2019-01-29T15:50:46.341Z,99571.91
2019-01-29T15:53:15.575Z,99567.39
2019-01-29T15:55:44.767Z,99569.47
2019-01-29T15:58:14.019Z,99565.38
2019-01-29T16:00:43.212Z,99565.31
2019-01-29T16:03:12.438Z,99562.99
2019-01-29T16:05:42.191Z,99566.77
2019-01-29T16:08:14.421Z,99557.48
2019-01-29T16:10:44.954Z,99561.34
2019-01-29T16:13:14.194Z,99564.77
2019-01-29T16:15:43.458Z,99564.77
2019-01-29T16:18:13.932Z,99565.63
2019-01-29T16:20:43.120Z,99560.02
2019-01-29T16:23:12.402Z,99563.04
2019-01-29T16:25:41.601Z,99564.77
2019-01-29T16:28:10.836Z,99560.84
2019-01-29T16:30:40.091Z,99561.77
2019-01-29T16:33:09.288Z,99557.81
2019-01-29T16:35:40.260Z,99553.41
2019-01-29T16:38:09.670Z,99555.20
2019-01-29T16:40:41.172Z,99552.58
2019-01-29T16:43:10.409Z,99556.09
2019-01-29T16:45:39.587Z,99556.91
2019-01-29T16:48:10.359Z,99549.87
2019-01-29T16:50:39.662Z,99549.02
2019-01-29T16:53:09.805Z,99545.15
2019-01-29T16:55:38.995Z,99540.84
2019-01-29T16:58:08.241Z,99539.15
2019-01-29T17:00:42.196Z,99533.53
2019-01-29T17:03:11.434Z,99534.39
2019-01-29T17:05:40.628Z,99535.77
2019-01-29T17:08:11.764Z,99535.37
2019-01-29T17:10:40.751Z,99531.39
2019-01-29T17:13:09.978Z,99530.59
2019-01-29T17:15:39.533Z,99526.61
2019-01-29T17:18:10.901Z,99527.03
2019-01-29T17:20:42.386Z,99527.86
2019-01-29T17:23:11.723Z,99524.35
2019-01-29T17:25:40.905Z,99522.98
2019-01-29T17:28:10.271Z,99522.16
2019-01-29T17:30:46.346Z,99519.53
2019-01-29T17:33:17.713Z,99516.51
2019-01-29T17:35:47.178Z,99512.14
2019-01-29T17:38:16.451Z,99513.00
2019-01-29T17:40:46.329Z,99509.97
2019-01-29T17:43:15.591Z,99507.36
2019-01-29T17:45:47.524Z,99503.84
2019-01-29T17:48:16.704Z,99503.79
2019-01-29T17:50:46.164Z,99497.16
2019-01-29T17:53:15.402Z,99501.86
2019-01-29T17:55:45.832Z,99497.40
2019-01-29T17:58:16.859Z,99497.27
2019-01-29T18:00:53.501Z,99495.34
2019-01-29T18:03:22.752Z,99489.00
2019-01-29T18:05:51.962Z,99487.38
2019-01-29T18:08:21.192Z,99487.05
2019-01-29T18:10:50.401Z,99489.88
2019-01-29T18:13:19.655Z,99483.50
2019-01-29T18:15:48.852Z,99483.16
2019-01-29T18:18:18.101Z,99481.89
2019-01-29T18:20:47.289Z,99478.38
2019-01-29T18:23:17.064Z,99483.71
2019-01-29T18:25:46.299Z,99484.24
2019-01-29T18:28:15.850Z,99482.27
2019-01-29T18:30:45.045Z,99479.69
2019-01-29T18:33:14.321Z,99472.30
2019-01-29T18:35:43.705Z,99477.66
2019-01-29T18:38:12.941Z,99480.55
2019-01-29T18:40:46.608Z,99479.38
2019-01-29T18:43:15.806Z,99476.49
2019-01-29T18:45:45.066Z,99476.04
2019-01-29T18:48:14.345Z,99481.98
2019-01-29T18:50:43.520Z,99479.95
2019-01-29T18:53:12.760Z,99480.39
2019-01-29T18:55:42.022Z,99477.98
2019-01-29T18:58:12.686Z,99474.77
2019-01-29T19:00:42.262Z,99472.84
2019-01-29T19:03:13.069Z,99470.72
2019-01-29T19:05:43.227Z,99473.69
2019-01-29T19:08:12.481Z,99474.27
2019-01-29T19:10:41.678Z,99469.42
2019-01-29T19:13:10.886Z,99469.33
2019-01-29T19:15:40.123Z,99466.33
2019-01-29T19:18:10.083Z,99464.12
2019-01-29T19:20:39.597Z,99469.58
2019-01-29T19:23:08.926Z,99464.96
2019-01-29T19:25:38.163Z,99468.14
2019-01-29T19:28:07.490Z,99458.45
2019-01-29T19:30:36.872Z,99457.52
2019-01-29T19:33:06.050Z,99459.50
2019-01-29T19:35:35.225Z,99461.55
2019-01-29T19:38:04.497Z,99462.01
2019-01-29T19:40:33.803Z,99461.12
2019-01-29T19:43:03.020Z,99457.12
2019-01-29T19:45:34.385Z,99454.92
2019-01-29T19:48:05.485Z,99458.73
2019-01-29T19:50:34.892Z,99459.14
2019-01-29T19:53:04.613Z,99463.05
2019-01-29T19:55:34.104Z,99450.13
2019-01-29T19:58:09.129Z,99447.97
2019-01-29T20:00:37.681Z,99456.39
2019-01-29T20:03:06.890Z,99453.20
2019-01-29T20:05:36.140Z,99448.30
2019-01-29T20:08:05.768Z,99440.94
2019-01-29T20:10:35.004Z,99445.23
2019-01-29T20:13:05.358Z,99443.94
2019-01-29T20:15:34.719Z,99441.26
2019-01-29T20:18:04.222Z,99440.83
2019-01-29T20:20:41.033Z,99434.93
2019-01-29T20:23:10.295Z,99431.19
2019-01-29T20:25:39.490Z,99431.05
2019-01-29T20:28:08.736Z,99427.23
2019-01-29T20:30:39.712Z,99418.08
2019-01-29T20:33:08.964Z,99423.56
2019-01-29T20:35:38.193Z,99423.70
2019-01-29T20:38:07.708Z,99422.47
2019-01-29T20:40:36.956Z,99418.89
2019-01-29T20:43:06.158Z,99418.68
2019-01-29T20:45:35.428Z,99412.81
2019-01-29T20:48:04.712Z,99412.16
2019-01-29T20:50:35.979Z,99409.30
2019-01-29T20:53:05.171Z,99410.28
2019-01-29T20:55:34.411Z,99405.71
2019-01-29T20:58:04.538Z,99403.80
2019-01-29T21:00:36.282Z,99407.30
2019-01-29T21:03:05.590Z,99403.59
2019-01-29T21:05:34.804Z,99400.84
2019-01-29T21:08:04.365Z,99404.12
2019-01-29T21:10:33.672Z,99400.09
2019-01-29T21:13:03.978Z,99394.58
2019-01-29T21:15:38.543Z,99396.87
2019-01-29T21:18:04.588Z,99402.45
2019-01-29T21:20:33.756Z,99394.48
2019-01-29T21:23:03.276Z,99396.55
2019-01-29T21:25:32.479Z,99394.44
2019-01-29T21:28:01.719Z,99386.64
2019-01-29T21:30:39.427Z,99385.06
2019-01-29T21:33:08.953Z,99384.80
2019-01-29T21:35:38.187Z,99373.36
2019-01-29T21:38:07.454Z,99379.55
2019-01-29T21:40:36.653Z,99385.38
2019-01-29T21:43:05.900Z,99369.47
2019-01-29T21:45:35.617Z,99374.63
2019-01-29T21:48:05.173Z,99373.23
2019-01-29T21:50:35.464Z,99377.36
2019-01-29T21:53:05.066Z,99372.47
2019-01-29T21:55:34.298Z,99374.56
2019-01-29T21:58:04.617Z,99369.06
2019-01-29T22:00:38.802Z,99370.92
2019-01-29T22:03:08.370Z,99372.09
2019-01-29T22:05:37.614Z,99367.25
2019-01-29T22:08:07.350Z,99371.69
2019-01-29T22:10:37.567Z,99360.30
2019-01-29T22:13:07.765Z,99359.05
2019-01-29T22:15:37.007Z,99356.09
2019-01-29T22:18:06.439Z,99347.00
2019-01-29T22:20:35.709Z,99348.35
2019-01-29T22:23:04.948Z,99351.44
2019-01-29T22:25:35.779Z,99344.72
2019-01-29T22:28:05.915Z,99345.52
2019-01-29T22:30:40.031Z,99345.12
2019-01-29T22:33:09.258Z,99341.53
2019-01-29T22:35:38.475Z,99332.16
2019-01-29T22:38:07.712Z,99333.77
2019-01-29T22:40:36.961Z,99332.30
2019-01-29T22:43:06.156Z,99332.30
2019-01-29T22:45:35.379Z,99331.45
2019-01-29T22:48:05.290Z,99323.70
2019-01-29T22:50:36.930Z,99327.34
2019-01-29T22:53:06.162Z,99327.95
2019-01-29T22:55:35.362Z,99324.23
2019-01-29T22:58:05.233Z,99320.16
2019-01-29T23:01:00.008Z,99324.81
2019-01-29T23:03:38.058Z,99327.02
2019-01-29T23:06:16.215Z,99318.31
2019-01-29T23:08:45.469Z,99319.03
2019-01-29T23:11:14.662Z,99316.30
2019-01-29T23:13:43.959Z,99303.39
2019-01-29T23:16:13.201Z,99305.78
2019-01-29T23:18:42.401Z,99294.94
2019-01-29T23:21:11.642Z,99298.66
2019-01-29T23:23:40.844Z,99305.20
2019-01-29T23:26:10.076Z,99296.77
2019-01-29T23:28:39.395Z,99286.82
2019-01-29T23:31:08.600Z,99287.98
2019-01-29T23:33:37.831Z,99276.84
2019-01-29T23:36:07.024Z,99278.59
2019-01-29T23:38:36.270Z,99275.90
2019-01-29T23:41:05.451Z,99275.94
2019-01-29T23:43:34.687Z,99272.45
2019-01-29T23:46:04.427Z,99271.60
2019-01-29T23:48:33.788Z,99264.66
2019-01-29T23:51:03.031Z,99260.63
2019-01-29T23:53:32.272Z,99265.42
2019-01-29T23:56:01.491Z,99253.37
2019-01-29T23:58:30.724Z,99255.26
